createdAt,value
2023-03-19T00:10:23.674Z,12.30
2023-03-19T00:12:50.640Z,11.80
2023-03-19T00:15:17.549Z,11.80
2023-03-19T00:17:44.778Z,11.80
2023-03-19T00:20:14.972Z,11.80
2023-03-19T00:22:42.228Z,11.80
2023-03-19T00:25:10.010Z,11.80
2023-03-19T00:27:38.060Z,11.80
2023-03-19T00:30:09.014Z,11.80
2023-03-19T00:32:36.969Z,11.60
2023-03-19T00:35:06.404Z,11.60
2023-03-19T00:37:33.678Z,11.60
2023-03-19T00:40:00.413Z,11.60
2023-03-19T00:42:27.562Z,11.60
2023-03-19T00:44:54.342Z,11.70
2023-03-19T00:47:21.287Z,11.60
2023-03-19T00:49:48.309Z,11.50
2023-03-19T00:52:15.476Z,11.40
2023-03-19T00:54:42.342Z,11.30
2023-03-19T00:57:09.478Z,11.40
2023-03-19T02:01:58.307Z,11.30
2023-03-19T02:04:27.658Z,11.30
2023-03-19T02:06:58.322Z,11.20
2023-03-19T02:09:27.212Z,11.20
2023-03-19T13:11:46.711Z,11.20
2023-03-19T13:14:38.386Z,16.80
2023-03-19T13:17:29.607Z,17.60
2023-03-19T13:22:28.967Z,17.70
2023-03-19T13:37:47.551Z,17.50
2023-03-19T13:40:49.253Z,17.20
2023-03-19T13:43:28.960Z,17.20
2023-03-19T13:46:25.487Z,17.10
2023-03-19T13:48:53.708Z,17.00
2023-03-19T13:51:20.640Z,16.30
2023-03-19T13:54:15.357Z,16.30
2023-03-19T13:57:05.844Z,16.20
2023-03-19T13:59:37.739Z,15.80
2023-03-19T14:02:25.472Z,15.80
2023-03-19T14:05:00.349Z,15.70
2023-03-19T14:07:52.708Z,15.70
2023-03-19T14:10:29.191Z,15.50
2023-03-19T14:13:16.052Z,15.50
2023-03-19T14:15:50.138Z,15.30
2023-03-19T14:18:21.806Z,15.40
2023-03-19T14:21:08.844Z,15.30
2023-03-19T14:23:44.144Z,15.20
2023-03-19T14:26:26.028Z,15.10
2023-03-19T14:29:04.513Z,15.00
2023-03-19T14:31:51.369Z,15.00
2023-03-19T14:34:41.229Z,15.00
2023-03-19T14:37:34.602Z,15.00
2023-03-19T14:40:14.238Z,15.00
2023-03-19T14:42:56.058Z,15.00
2023-03-19T14:45:39.388Z,15.10
2023-03-19T14:48:33.692Z,15.20
2023-03-19T14:51:18.131Z,15.20
2023-03-19T14:53:54.220Z,15.40
2023-03-19T14:56:31.154Z,15.50
2023-03-19T14:59:03.929Z,15.50
2023-03-19T15:01:33.225Z,15.50
2023-03-19T15:04:08.031Z,15.60
2023-03-19T15:06:40.800Z,15.70
2023-03-19T15:09:20.261Z,15.50
2023-03-19T15:11:59.058Z,15.40
2023-03-19T15:15:09.700Z,15.40
2023-03-19T15:17:38.745Z,15.30
2023-03-19T15:20:20.565Z,15.30
2023-03-19T15:23:00.750Z,15.30
2023-03-19T15:25:28.517Z,15.20
2023-03-19T15:28:13.522Z,15.10
2023-03-19T15:30:53.459Z,15.20
2023-03-19T15:33:39.560Z,15.20
2023-03-19T15:36:24.197Z,15.10
2023-03-19T15:39:07.732Z,15.00
2023-03-19T15:41:40.775Z,15.00
2023-03-19T15:44:15.844Z,15.10
2023-03-19T15:46:44.593Z,15.10
2023-03-19T15:49:29.182Z,15.20
2023-03-19T15:52:00.827Z,15.10
2023-03-19T15:54:28.004Z,15.00
2023-03-19T15:56:56.168Z,15.00
2023-03-19T15:59:26.610Z,14.90
2023-03-19T16:01:58.928Z,14.90
2023-03-19T16:04:29.620Z,14.90
2023-03-19T16:06:58.496Z,14.90
2023-03-19T16:09:27.158Z,14.90
2023-03-19T16:11:55.168Z,14.90
2023-03-19T16:14:33.304Z,14.80
2023-03-19T16:17:09.295Z,14.80
2023-03-19T16:19:51.074Z,14.80
2023-03-19T16:22:22.574Z,14.70
2023-03-19T16:24:51.805Z,14.80
2023-03-19T16:27:38.090Z,14.70
2023-03-19T16:30:20.972Z,14.70
2023-03-19T16:33:01.424Z,14.60
2023-03-19T16:35:32.778Z,14.60
2023-03-19T16:38:18.647Z,14.60
2023-03-19T16:41:10.572Z,14.60
2023-03-19T16:43:43.628Z,14.60
2023-03-19T16:46:13.059Z,14.60
2023-03-19T16:48:40.123Z,14.60
2023-03-19T16:51:19.566Z,14.60
2023-03-19T16:53:48.582Z,14.50
2023-03-19T16:56:16.066Z,14.50
2023-03-19T16:58:46.451Z,14.50
2023-03-19T17:01:22.231Z,14.50
2023-03-19T17:03:49.855Z,14.40
2023-03-19T17:06:17.962Z,14.40
2023-03-19T17:08:45.203Z,14.40
2023-03-19T17:11:21.233Z,14.30
2023-03-19T17:13:48.021Z,14.40
2023-03-19T17:16:14.956Z,14.30
2023-03-19T17:18:43.662Z,14.40
2023-03-19T17:21:22.891Z,14.40
2023-03-19T17:23:49.953Z,14.30
2023-03-19T17:26:22.488Z,14.30
2023-03-19T17:28:49.746Z,14.20
2023-03-19T17:31:31.576Z,14.20
2023-03-19T17:34:04.654Z,14.20
2023-03-19T17:36:32.036Z,14.20
2023-03-19T17:38:59.125Z,14.20
2023-03-19T17:41:25.984Z,14.20
2023-03-19T17:43:52.847Z,14.20
2023-03-19T17:46:23.496Z,14.20
2023-03-19T17:48:51.426Z,14.20
2023-03-19T17:51:19.161Z,14.20
2023-03-19T17:53:52.880Z,14.10
2023-03-19T17:56:21.751Z,14.10
2023-03-19T17:58:50.432Z,14.10
2023-03-19T20:20:17.021Z,14.10
2023-03-19T20:22:44.034Z,12.20
2023-03-19T20:25:11.349Z,12.10
